sensor_id;sensor_type;location;lat;lon;timestamp;P1;durP1;ratioP1;P2;durP2;ratioP2
57313;SDS011;53202;50.976;18.216;2022-07-23T00:02:23;19.20;;;12.90;;
57313;SDS011;53202;50.976;18.216;2022-07-23T00:05:03;19.40;;;12.20;;
57313;SDS011;53202;50.976;18.216;2022-07-23T00:07:43;16.60;;;12.60;;
57313;SDS011;53202;50.976;18.216;2022-07-23T00:10:23;18.40;;;12.80;;
57313;SDS011;53202;50.976;18.216;2022-07-23T00:13:03;25.20;;;13.70;;
57313;SDS011;53202;50.976;18.216;2022-07-23T00:15:43;20.20;;;13.00;;
57313;SDS011;53202;50.976;18.216;2022-07-23T00:18:23;23.70;;;12.20;;
57313;SDS011;53202;50.976;18.216;2022-07-23T00:21:03;19.70;;;14.10;;
57313;SDS011;53202;50.976;18.216;2022-07-23T00:23:44;22.80;;;13.20;;
57313;SDS011;53202;50.976;18.216;2022-07-23T00:26:24;26.00;;;13.20;;
57313;SDS011;53202;50.976;18.216;2022-07-23T00:29:04;25.10;;;15.20;;
57313;SDS011;53202;50.976;18.216;2022-07-23T00:31:44;21.10;;;14.60;;
57313;SDS011;53202;50.976;18.216;2022-07-23T00:34:24;17.50;;;14.00;;
57313;SDS011;53202;50.976;18.216;2022-07-23T00:37:04;20.40;;;14.30;;
57313;SDS011;53202;50.976;18.216;2022-07-23T00:39:45;17.80;;;14.00;;
57313;SDS011;53202;50.976;18.216;2022-07-23T00:42:25;19.00;;;14.20;;
57313;SDS011;53202;50.976;18.216;2022-07-23T00:45:05;21.40;;;14.40;;
57313;SDS011;53202;50.976;18.216;2022-07-23T00:47:45;26.80;;;15.30;;
57313;SDS011;53202;50.976;18.216;2022-07-23T00:50:25;22.40;;;14.70;;
57313;SDS011;53202;50.976;18.216;2022-07-23T00:53:05;21.70;;;16.90;;
57313;SDS011;53202;50.976;18.216;2022-07-23T00:55:46;21.70;;;16.00;;
57313;SDS011;53202;50.976;18.216;2022-07-23T00:58:26;25.50;;;16.70;;
57313;SDS011;53202;50.976;18.216;2022-07-23T01:01:06;30.50;;;17.50;;
57313;SDS011;53202;50.976;18.216;2022-07-23T01:03:46;23.30;;;16.50;;
57313;SDS011;53202;50.976;18.216;2022-07-23T01:06:26;24.00;;;16.60;;
57313;SDS011;53202;50.976;18.216;2022-07-23T01:09:07;20.40;;;15.80;;
57313;SDS011;53202;50.976;18.216;2022-07-23T01:11:46;16.40;;;14.20;;
57313;SDS011;53202;50.976;18.216;2022-07-23T01:14:27;25.10;;;15.80;;
57313;SDS011;53202;50.976;18.216;2022-07-23T01:17:07;24.80;;;15.50;;
57313;SDS011;53202;50.976;18.216;2022-07-23T01:19:47;21.60;;;15.80;;
57313;SDS011;53202;50.976;18.216;2022-07-23T01:22:28;24.30;;;15.20;;
57313;SDS011;53202;50.976;18.216;2022-07-23T01:25:07;21.40;;;15.70;;
57313;SDS011;53202;50.976;18.216;2022-07-23T01:27:48;25.90;;;16.80;;
57313;SDS011;53202;50.976;18.216;2022-07-23T01:30:28;21.70;;;15.80;;
57313;SDS011;53202;50.976;18.216;2022-07-23T01:33:08;26.10;;;15.90;;
57313;SDS011;53202;50.976;18.216;2022-07-23T01:35:48;21.80;;;14.50;;
57313;SDS011;53202;50.976;18.216;2022-07-23T01:38:28;30.40;;;15.00;;
57313;SDS011;53202;50.976;18.216;2022-07-23T01:41:09;19.20;;;13.70;;
57313;SDS011;53202;50.976;18.216;2022-07-23T01:43:48;23.50;;;14.40;;
57313;SDS011;53202;50.976;18.216;2022-07-23T01:46:29;26.70;;;15.40;;
57313;SDS011;53202;50.976;18.216;2022-07-23T01:49:09;21.60;;;15.50;;
57313;SDS011;53202;50.976;18.216;2022-07-23T01:51:49;20.00;;;16.10;;
57313;SDS011;53202;50.976;18.216;2022-07-23T01:54:49;21.40;;;15.70;;
57313;SDS011;53202;50.976;18.216;2022-07-23T01:57:29;21.00;;;15.00;;
57313;SDS011;53202;50.976;18.216;2022-07-23T02:00:09;25.10;;;15.20;;
57313;SDS011;53202;50.976;18.216;2022-07-23T02:02:49;24.60;;;15.20;;
57313;SDS011;53202;50.976;18.216;2022-07-23T02:05:30;24.80;;;15.50;;
57313;SDS011;53202;50.976;18.216;2022-07-23T02:08:10;19.00;;;14.80;;
57313;SDS011;53202;50.976;18.216;2022-07-23T02:10:50;27.50;;;16.80;;
57313;SDS011;53202;50.976;18.216;2022-07-23T02:13:30;19.30;;;14.90;;
57313;SDS011;53202;50.976;18.216;2022-07-23T02:16:10;20.50;;;16.00;;
57313;SDS011;53202;50.976;18.216;2022-07-23T02:18:51;20.60;;;16.60;;
57313;SDS011;53202;50.976;18.216;2022-07-23T02:21:31;21.60;;;15.80;;
57313;SDS011;53202;50.976;18.216;2022-07-23T02:24:12;24.10;;;15.60;;
57313;SDS011;53202;50.976;18.216;2022-07-23T02:26:52;19.20;;;14.80;;
57313;SDS011;53202;50.976;18.216;2022-07-23T02:29:32;21.80;;;14.60;;
57313;SDS011;53202;50.976;18.216;2022-07-23T02:32:13;29.90;;;14.30;;
57313;SDS011;53202;50.976;18.216;2022-07-23T02:34:52;22.10;;;15.10;;
57313;SDS011;53202;50.976;18.216;2022-07-23T02:37:33;25.20;;;16.20;;
57313;SDS011;53202;50.976;18.216;2022-07-23T02:40:13;20.80;;;16.50;;
57313;SDS011;53202;50.976;18.216;2022-07-23T02:42:53;16.50;;;14.80;;
57313;SDS011;53202;50.976;18.216;2022-07-23T02:45:33;16.90;;;14.10;;
57313;SDS011;53202;50.976;18.216;2022-07-23T02:48:13;23.60;;;14.80;;
57313;SDS011;53202;50.976;18.216;2022-07-23T02:50:53;20.80;;;14.40;;
57313;SDS011;53202;50.976;18.216;2022-07-23T02:53:34;20.10;;;15.30;;
57313;SDS011;53202;50.976;18.216;2022-07-23T02:56:14;24.00;;;16.50;;
57313;SDS011;53202;50.976;18.216;2022-07-23T02:58:54;20.10;;;15.50;;
57313;SDS011;53202;50.976;18.216;2022-07-23T03:01:34;28.10;;;16.60;;
57313;SDS011;53202;50.976;18.216;2022-07-23T03:04:14;24.30;;;16.70;;
57313;SDS011;53202;50.976;18.216;2022-07-23T03:06:54;19.70;;;16.40;;
57313;SDS011;53202;50.976;18.216;2022-07-23T03:09:35;23.40;;;15.50;;
57313;SDS011;53202;50.976;18.216;2022-07-23T03:12:15;19.70;;;15.50;;
57313;SDS011;53202;50.976;18.216;2022-07-23T03:14:55;19.60;;;15.10;;
57313;SDS011;53202;50.976;18.216;2022-07-23T03:17:35;25.40;;;15.80;;
57313;SDS011;53202;50.976;18.216;2022-07-23T03:20:15;17.10;;;14.80;;
57313;SDS011;53202;50.976;18.216;2022-07-23T03:22:55;24.80;;;15.50;;
57313;SDS011;53202;50.976;18.216;2022-07-23T03:25:35;21.90;;;14.10;;
57313;SDS011;53202;50.976;18.216;2022-07-23T03:28:16;19.60;;;15.40;;
57313;SDS011;53202;50.976;18.216;2022-07-23T03:30:56;20.10;;;14.50;;
57313;SDS011;53202;50.976;18.216;2022-07-23T03:33:36;19.20;;;15.70;;
57313;SDS011;53202;50.976;18.216;2022-07-23T03:36:16;19.50;;;15.80;;
57313;SDS011;53202;50.976;18.216;2022-07-23T03:38:56;19.40;;;15.20;;
57313;SDS011;53202;50.976;18.216;2022-07-23T03:41:36;23.40;;;16.30;;
57313;SDS011;53202;50.976;18.216;2022-07-23T03:44:17;21.20;;;15.40;;
57313;SDS011;53202;50.976;18.216;2022-07-23T03:46:57;28.00;;;16.30;;
57313;SDS011;53202;50.976;18.216;2022-07-23T03:49:37;20.30;;;15.70;;
57313;SDS011;53202;50.976;18.216;2022-07-23T03:52:17;23.00;;;16.70;;
57313;SDS011;53202;50.976;18.216;2022-07-23T03:54:57;22.40;;;16.70;;
57313;SDS011;53202;50.976;18.216;2022-07-23T03:57:37;20.70;;;16.70;;
57313;SDS011;53202;50.976;18.216;2022-07-23T04:00:18;23.30;;;17.20;;
57313;SDS011;53202;50.976;18.216;2022-07-23T04:03:00;22.80;;;16.50;;
57313;SDS011;53202;50.976;18.216;2022-07-23T04:05:38;22.00;;;16.30;;
57313;SDS011;53202;50.976;18.216;2022-07-23T04:08:18;20.10;;;15.90;;
57313;SDS011;53202;50.976;18.216;2022-07-23T04:10:58;17.30;;;15.00;;
57313;SDS011;53202;50.976;18.216;2022-07-23T04:13:39;22.30;;;16.10;;
57313;SDS011;53202;50.976;18.216;2022-07-23T04:16:18;21.20;;;15.70;;
57313;SDS011;53202;50.976;18.216;2022-07-23T04:18:59;17.50;;;14.70;;
57313;SDS011;53202;50.976;18.216;2022-07-23T04:21:39;16.80;;;13.80;;
57313;SDS011;53202;50.976;18.216;2022-07-23T04:24:19;18.10;;;16.20;;
57313;SDS011;53202;50.976;18.216;2022-07-23T04:26:59;20.90;;;14.40;;
57313;SDS011;53202;50.976;18.216;2022-07-23T04:29:39;20.60;;;15.50;;
57313;SDS011;53202;50.976;18.216;2022-07-23T04:32:19;21.30;;;15.70;;
57313;SDS011;53202;50.976;18.216;2022-07-23T04:34:59;24.70;;;16.00;;
57313;SDS011;53202;50.976;18.216;2022-07-23T04:37:40;21.60;;;16.10;;
57313;SDS011;53202;50.976;18.216;2022-07-23T04:40:20;20.80;;;15.10;;
57313;SDS011;53202;50.976;18.216;2022-07-23T04:43:00;21.50;;;15.10;;
57313;SDS011;53202;50.976;18.216;2022-07-23T04:45:40;22.90;;;15.60;;
57313;SDS011;53202;50.976;18.216;2022-07-23T04:48:20;22.40;;;14.60;;
57313;SDS011;53202;50.976;18.216;2022-07-23T04:51:00;25.10;;;17.40;;
57313;SDS011;53202;50.976;18.216;2022-07-23T04:53:41;25.30;;;17.40;;
57313;SDS011;53202;50.976;18.216;2022-07-23T04:56:21;21.60;;;16.10;;
57313;SDS011;53202;50.976;18.216;2022-07-23T04:59:01;18.00;;;15.80;;
57313;SDS011;53202;50.976;18.216;2022-07-23T05:01:41;30.30;;;15.10;;
57313;SDS011;53202;50.976;18.216;2022-07-23T05:04:22;22.50;;;14.70;;
57313;SDS011;53202;50.976;18.216;2022-07-23T05:07:02;20.50;;;14.20;;
57313;SDS011;53202;50.976;18.216;2022-07-23T05:09:42;18.50;;;13.40;;
57313;SDS011;53202;50.976;18.216;2022-07-23T05:12:22;15.20;;;13.00;;
57313;SDS011;53202;50.976;18.216;2022-07-23T05:15:02;14.90;;;12.80;;
57313;SDS011;53202;50.976;18.216;2022-07-23T05:17:42;14.70;;;12.20;;
57313;SDS011;53202;50.976;18.216;2022-07-23T05:20:22;17.30;;;13.30;;
57313;SDS011;53202;50.976;18.216;2022-07-23T05:23:02;14.00;;;12.10;;
57313;SDS011;53202;50.976;18.216;2022-07-23T05:25:43;16.30;;;13.10;;
57313;SDS011;53202;50.976;18.216;2022-07-23T05:28:22;15.70;;;13.70;;
57313;SDS011;53202;50.976;18.216;2022-07-23T05:31:02;14.70;;;10.00;;
57313;SDS011;53202;50.976;18.216;2022-07-23T05:33:43;12.40;;;10.20;;
57313;SDS011;53202;50.976;18.216;2022-07-23T05:36:23;13.00;;;9.90;;
57313;SDS011;53202;50.976;18.216;2022-07-23T05:39:03;12.60;;;8.90;;
57313;SDS011;53202;50.976;18.216;2022-07-23T05:41:43;12.40;;;10.10;;
57313;SDS011;53202;50.976;18.216;2022-07-23T05:44:23;12.40;;;9.10;;
57313;SDS011;53202;50.976;18.216;2022-07-23T05:47:03;13.40;;;9.40;;
57313;SDS011;53202;50.976;18.216;2022-07-23T05:49:43;13.90;;;9.90;;
57313;SDS011;53202;50.976;18.216;2022-07-23T05:52:24;20.20;;;9.80;;
57313;SDS011;53202;50.976;18.216;2022-07-23T05:55:04;18.10;;;10.70;;
57313;SDS011;53202;50.976;18.216;2022-07-23T05:57:44;14.50;;;9.10;;
57313;SDS011;53202;50.976;18.216;2022-07-23T06:00:24;16.90;;;9.90;;
57313;SDS011;53202;50.976;18.216;2022-07-23T06:03:04;16.20;;;9.30;;
57313;SDS011;53202;50.976;18.216;2022-07-23T06:05:44;14.20;;;9.10;;
57313;SDS011;53202;50.976;18.216;2022-07-23T06:08:25;17.90;;;8.80;;
57313;SDS011;53202;50.976;18.216;2022-07-23T06:11:05;18.40;;;9.10;;
57313;SDS011;53202;50.976;18.216;2022-07-23T06:13:45;14.80;;;8.50;;
57313;SDS011;53202;50.976;18.216;2022-07-23T06:16:25;13.00;;;9.70;;
57313;SDS011;53202;50.976;18.216;2022-07-23T06:19:05;21.60;;;9.40;;
57313;SDS011;53202;50.976;18.216;2022-07-23T06:21:45;10.10;;;8.30;;
57313;SDS011;53202;50.976;18.216;2022-07-23T06:24:26;11.90;;;9.30;;
57313;SDS011;53202;50.976;18.216;2022-07-23T06:27:06;17.90;;;8.50;;
57313;SDS011;53202;50.976;18.216;2022-07-23T06:29:46;12.90;;;8.00;;
57313;SDS011;53202;50.976;18.216;2022-07-23T06:32:26;10.90;;;7.80;;
57313;SDS011;53202;50.976;18.216;2022-07-23T06:35:06;10.40;;;8.80;;
57313;SDS011;53202;50.976;18.216;2022-07-23T06:37:46;12.00;;;8.20;;
57313;SDS011;53202;50.976;18.216;2022-07-23T06:40:26;8.90;;;7.60;;
57313;SDS011;53202;50.976;18.216;2022-07-23T06:43:07;15.80;;;8.30;;
57313;SDS011;53202;50.976;18.216;2022-07-23T06:45:47;12.10;;;7.80;;
57313;SDS011;53202;50.976;18.216;2022-07-23T06:48:27;13.90;;;8.90;;
57313;SDS011;53202;50.976;18.216;2022-07-23T06:51:07;13.50;;;8.30;;
57313;SDS011;53202;50.976;18.216;2022-07-23T06:53:47;9.50;;;7.80;;
57313;SDS011;53202;50.976;18.216;2022-07-23T06:56:29;12.30;;;8.00;;
57313;SDS011;53202;50.976;18.216;2022-07-23T06:59:08;10.70;;;8.30;;
57313;SDS011;53202;50.976;18.216;2022-07-23T07:01:48;10.90;;;8.00;;
57313;SDS011;53202;50.976;18.216;2022-07-23T07:04:30;12.50;;;7.20;;
57313;SDS011;53202;50.976;18.216;2022-07-23T07:07:11;10.70;;;7.80;;
57313;SDS011;53202;50.976;18.216;2022-07-23T07:09:51;11.30;;;8.00;;
57313;SDS011;53202;50.976;18.216;2022-07-23T07:12:31;12.00;;;7.90;;
57313;SDS011;53202;50.976;18.216;2022-07-23T07:15:11;10.60;;;8.00;;
57313;SDS011;53202;50.976;18.216;2022-07-23T07:17:51;12.90;;;7.90;;
57313;SDS011;53202;50.976;18.216;2022-07-23T07:20:31;8.30;;;7.40;;
57313;SDS011;53202;50.976;18.216;2022-07-23T07:23:12;10.40;;;7.20;;
57313;SDS011;53202;50.976;18.216;2022-07-23T07:25:52;13.20;;;7.50;;
57313;SDS011;53202;50.976;18.216;2022-07-23T07:28:32;12.20;;;7.00;;
57313;SDS011;53202;50.976;18.216;2022-07-23T07:31:12;11.30;;;6.80;;
57313;SDS011;53202;50.976;18.216;2022-07-23T07:33:52;15.80;;;6.30;;
57313;SDS011;53202;50.976;18.216;2022-07-23T07:36:32;13.60;;;7.10;;
57313;SDS011;53202;50.976;18.216;2022-07-23T07:39:12;7.70;;;6.20;;
57313;SDS011;53202;50.976;18.216;2022-07-23T07:41:53;9.70;;;7.20;;
57313;SDS011;53202;50.976;18.216;2022-07-23T07:44:33;8.80;;;6.50;;
57313;SDS011;53202;50.976;18.216;2022-07-23T07:47:13;10.10;;;6.30;;
57313;SDS011;53202;50.976;18.216;2022-07-23T07:49:53;10.40;;;6.80;;
57313;SDS011;53202;50.976;18.216;2022-07-23T07:52:35;8.20;;;6.60;;
57313;SDS011;53202;50.976;18.216;2022-07-23T07:55:13;9.00;;;6.40;;
57313;SDS011;53202;50.976;18.216;2022-07-23T07:57:54;12.70;;;7.20;;
57313;SDS011;53202;50.976;18.216;2022-07-23T08:00:34;11.20;;;6.70;;
57313;SDS011;53202;50.976;18.216;2022-07-23T08:03:14;10.80;;;6.60;;
57313;SDS011;53202;50.976;18.216;2022-07-23T08:05:54;12.30;;;6.90;;
57313;SDS011;53202;50.976;18.216;2022-07-23T08:08:34;7.00;;;6.40;;
57313;SDS011;53202;50.976;18.216;2022-07-23T08:11:14;9.40;;;7.10;;
57313;SDS011;53202;50.976;18.216;2022-07-23T08:13:54;7.40;;;6.60;;
57313;SDS011;53202;50.976;18.216;2022-07-23T08:16:35;8.10;;;7.00;;
57313;SDS011;53202;50.976;18.216;2022-07-23T08:19:15;13.50;;;6.50;;
57313;SDS011;53202;50.976;18.216;2022-07-23T08:21:55;12.00;;;6.30;;
57313;SDS011;53202;50.976;18.216;2022-07-23T08:24:35;6.80;;;6.10;;
57313;SDS011;53202;50.976;18.216;2022-07-23T08:27:15;13.20;;;6.50;;
57313;SDS011;53202;50.976;18.216;2022-07-23T08:29:55;9.10;;;6.70;;
57313;SDS011;53202;50.976;18.216;2022-07-23T08:35:37;10.30;;;5.70;;
57313;SDS011;53202;50.976;18.216;2022-07-23T08:38:17;12.00;;;5.90;;
57313;SDS011;53202;50.976;18.216;2022-07-23T08:40:56;6.00;;;5.20;;
57313;SDS011;53202;50.976;18.216;2022-07-23T08:43:36;6.60;;;5.90;;
57313;SDS011;53202;50.976;18.216;2022-07-23T08:46:16;7.20;;;5.60;;
57313;SDS011;53202;50.976;18.216;2022-07-23T08:48:57;7.00;;;6.30;;
57313;SDS011;53202;50.976;18.216;2022-07-23T08:51:37;8.70;;;6.40;;
57313;SDS011;53202;50.976;18.216;2022-07-23T08:54:17;9.80;;;5.70;;
57313;SDS011;53202;50.976;18.216;2022-07-23T08:56:57;11.20;;;6.50;;
57313;SDS011;53202;50.976;18.216;2022-07-23T08:59:37;7.00;;;5.70;;
57313;SDS011;53202;50.976;18.216;2022-07-23T09:02:17;6.20;;;5.60;;
57313;SDS011;53202;50.976;18.216;2022-07-23T09:04:58;7.30;;;6.40;;
57313;SDS011;53202;50.976;18.216;2022-07-23T09:07:38;6.90;;;5.70;;
57313;SDS011;53202;50.976;18.216;2022-07-23T09:13:42;7.20;;;5.90;;
57313;SDS011;53202;50.976;18.216;2022-07-23T09:16:29;8.70;;;5.30;;
57313;SDS011;53202;50.976;18.216;2022-07-23T09:19:08;11.70;;;5.50;;
57313;SDS011;53202;50.976;18.216;2022-07-23T09:21:49;8.70;;;5.50;;
57313;SDS011;53202;50.976;18.216;2022-07-23T09:24:29;7.00;;;5.50;;
57313;SDS011;53202;50.976;18.216;2022-07-23T09:27:09;15.80;;;6.20;;
57313;SDS011;53202;50.976;18.216;2022-07-23T09:29:55;8.70;;;5.80;;
57313;SDS011;53202;50.976;18.216;2022-07-23T09:32:39;10.00;;;5.40;;
57313;SDS011;53202;50.976;18.216;2022-07-23T09:35:19;8.00;;;5.60;;
57313;SDS011;53202;50.976;18.216;2022-07-23T09:38:01;6.10;;;5.50;;
57313;SDS011;53202;50.976;18.216;2022-07-23T09:40:40;21.30;;;6.30;;
57313;SDS011;53202;50.976;18.216;2022-07-23T09:43:27;8.60;;;6.40;;
57313;SDS011;53202;50.976;18.216;2022-07-23T09:49:11;9.10;;;5.60;;
57313;SDS011;53202;50.976;18.216;2022-07-23T09:51:52;9.90;;;7.00;;
57313;SDS011;53202;50.976;18.216;2022-07-23T09:54:32;9.90;;;6.50;;
57313;SDS011;53202;50.976;18.216;2022-07-23T09:57:11;11.30;;;7.40;;
57313;SDS011;53202;50.976;18.216;2022-07-23T09:59:51;11.90;;;6.30;;
57313;SDS011;53202;50.976;18.216;2022-07-23T10:02:32;7.60;;;6.10;;
57313;SDS011;53202;50.976;18.216;2022-07-23T10:05:11;13.80;;;6.70;;
57313;SDS011;53202;50.976;18.216;2022-07-23T10:07:51;7.30;;;6.40;;
57313;SDS011;53202;50.976;18.216;2022-07-23T10:10:31;7.60;;;6.00;;
57313;SDS011;53202;50.976;18.216;2022-07-23T10:13:12;7.10;;;6.00;;
57313;SDS011;53202;50.976;18.216;2022-07-23T10:16:12;11.70;;;6.20;;
57313;SDS011;53202;50.976;18.216;2022-07-23T10:18:52;7.30;;;6.60;;
57313;SDS011;53202;50.976;18.216;2022-07-23T10:21:36;7.50;;;6.00;;
57313;SDS011;53202;50.976;18.216;2022-07-23T10:24:27;13.20;;;6.30;;
57313;SDS011;53202;50.976;18.216;2022-07-23T10:36:29;5.70;;;5.10;;
57313;SDS011;53202;50.976;18.216;2022-07-23T10:42:14;7.70;;;5.40;;
57313;SDS011;53202;50.976;18.216;2022-07-23T10:44:53;7.10;;;4.90;;
57313;SDS011;53202;50.976;18.216;2022-07-23T10:47:33;6.50;;;5.00;;
57313;SDS011;53202;50.976;18.216;2022-07-23T10:50:25;11.40;;;5.60;;
57313;SDS011;53202;50.976;18.216;2022-07-23T10:56:04;11.20;;;5.90;;
57313;SDS011;53202;50.976;18.216;2022-07-23T10:58:45;8.00;;;5.50;;
57313;SDS011;53202;50.976;18.216;2022-07-23T11:01:32;12.00;;;6.10;;
57313;SDS011;53202;50.976;18.216;2022-07-23T11:04:14;9.30;;;5.50;;
57313;SDS011;53202;50.976;18.216;2022-07-23T11:07:06;16.20;;;6.30;;
57313;SDS011;53202;50.976;18.216;2022-07-23T11:09:45;8.40;;;5.50;;
57313;SDS011;53202;50.976;18.216;2022-07-23T11:12:32;12.70;;;6.00;;
57313;SDS011;53202;50.976;18.216;2022-07-23T11:15:15;8.80;;;6.40;;
57313;SDS011;53202;50.976;18.216;2022-07-23T11:17:58;8.20;;;6.30;;
57313;SDS011;53202;50.976;18.216;2022-07-23T11:20:45;11.50;;;6.90;;
57313;SDS011;53202;50.976;18.216;2022-07-23T11:23:42;9.60;;;6.40;;
57313;SDS011;53202;50.976;18.216;2022-07-23T11:26:58;20.90;;;6.60;;
57313;SDS011;53202;50.976;18.216;2022-07-23T11:32:31;11.30;;;7.00;;
57313;SDS011;53202;50.976;18.216;2022-07-23T11:35:20;10.40;;;6.90;;
57313;SDS011;53202;50.976;18.216;2022-07-23T11:38:07;15.40;;;7.90;;
57313;SDS011;53202;50.976;18.216;2022-07-23T11:40:48;11.80;;;7.50;;
57313;SDS011;53202;50.976;18.216;2022-07-23T11:43:27;8.90;;;6.80;;
57313;SDS011;53202;50.976;18.216;2022-07-23T11:46:09;16.30;;;7.00;;
57313;SDS011;53202;50.976;18.216;2022-07-23T11:49:00;17.90;;;6.80;;
57313;SDS011;53202;50.976;18.216;2022-07-23T11:51:37;9.00;;;7.40;;
57313;SDS011;53202;50.976;18.216;2022-07-23T11:54:17;13.70;;;7.50;;
57313;SDS011;53202;50.976;18.216;2022-07-23T11:56:58;12.10;;;7.10;;
57313;SDS011;53202;50.976;18.216;2022-07-23T11:59:37;8.90;;;6.50;;
57313;SDS011;53202;50.976;18.216;2022-07-23T12:02:19;10.50;;;7.60;;
57313;SDS011;53202;50.976;18.216;2022-07-23T12:04:58;12.00;;;5.90;;
57313;SDS011;53202;50.976;18.216;2022-07-23T12:07:39;16.00;;;6.40;;
57313;SDS011;53202;50.976;18.216;2022-07-23T12:10:23;15.20;;;6.50;;
57313;SDS011;53202;50.976;18.216;2022-07-23T12:13:09;10.70;;;6.50;;
57313;SDS011;53202;50.976;18.216;2022-07-23T12:15:51;32.10;;;9.80;;
57313;SDS011;53202;50.976;18.216;2022-07-23T12:18:29;28.40;;;9.30;;
57313;SDS011;53202;50.976;18.216;2022-07-23T12:21:09;21.80;;;9.30;;
57313;SDS011;53202;50.976;18.216;2022-07-23T12:23:49;16.00;;;8.60;;
57313;SDS011;53202;50.976;18.216;2022-07-23T12:26:29;21.30;;;8.60;;
57313;SDS011;53202;50.976;18.216;2022-07-23T12:29:09;11.50;;;8.00;;
57313;SDS011;53202;50.976;18.216;2022-07-23T12:31:49;14.70;;;10.00;;
57313;SDS011;53202;50.976;18.216;2022-07-23T12:34:29;14.30;;;10.00;;
57313;SDS011;53202;50.976;18.216;2022-07-23T12:43:11;16.00;;;10.10;;
57313;SDS011;53202;50.976;18.216;2022-07-23T12:46:04;13.20;;;10.20;;
57313;SDS011;53202;50.976;18.216;2022-07-23T12:48:52;15.10;;;10.30;;
57313;SDS011;53202;50.976;18.216;2022-07-23T12:51:31;16.90;;;10.80;;
57313;SDS011;53202;50.976;18.216;2022-07-23T12:54:11;14.60;;;10.80;;
57313;SDS011;53202;50.976;18.216;2022-07-23T12:56:51;20.00;;;12.70;;
57313;SDS011;53202;50.976;18.216;2022-07-23T12:59:31;17.50;;;12.00;;
57313;SDS011;53202;50.976;18.216;2022-07-23T13:02:11;22.10;;;12.80;;
57313;SDS011;53202;50.976;18.216;2022-07-23T13:04:51;22.60;;;14.20;;
57313;SDS011;53202;50.976;18.216;2022-07-23T13:07:31;31.20;;;16.50;;
57313;SDS011;53202;50.976;18.216;2022-07-23T13:10:12;18.20;;;13.70;;
57313;SDS011;53202;50.976;18.216;2022-07-23T13:12:52;20.70;;;14.90;;
57313;SDS011;53202;50.976;18.216;2022-07-23T13:15:32;22.10;;;15.00;;
57313;SDS011;53202;50.976;18.216;2022-07-23T13:18:12;18.90;;;14.60;;
57313;SDS011;53202;50.976;18.216;2022-07-23T13:20:52;16.30;;;14.70;;
57313;SDS011;53202;50.976;18.216;2022-07-23T13:23:32;16.70;;;14.60;;
57313;SDS011;53202;50.976;18.216;2022-07-23T13:26:12;17.60;;;14.50;;
57313;SDS011;53202;50.976;18.216;2022-07-23T13:28:53;15.40;;;12.90;;
57313;SDS011;53202;50.976;18.216;2022-07-23T13:31:33;14.20;;;11.30;;
57313;SDS011;53202;50.976;18.216;2022-07-23T13:34:13;14.40;;;12.80;;
57313;SDS011;53202;50.976;18.216;2022-07-23T13:36:53;14.10;;;12.60;;
57313;SDS011;53202;50.976;18.216;2022-07-23T13:39:33;15.40;;;12.10;;
57313;SDS011;53202;50.976;18.216;2022-07-23T13:42:13;15.50;;;11.50;;
57313;SDS011;53202;50.976;18.216;2022-07-23T13:44:54;15.70;;;10.90;;
57313;SDS011;53202;50.976;18.216;2022-07-23T13:47:34;13.80;;;9.30;;
57313;SDS011;53202;50.976;18.216;2022-07-23T13:50:14;15.80;;;10.50;;
57313;SDS011;53202;50.976;18.216;2022-07-23T13:52:54;18.40;;;10.40;;
57313;SDS011;53202;50.976;18.216;2022-07-23T13:55:34;17.50;;;10.90;;
57313;SDS011;53202;50.976;18.216;2022-07-23T13:58:14;18.50;;;12.00;;
57313;SDS011;53202;50.976;18.216;2022-07-23T14:00:55;17.60;;;12.10;;
57313;SDS011;53202;50.976;18.216;2022-07-23T14:03:35;20.60;;;13.00;;
57313;SDS011;53202;50.976;18.216;2022-07-23T14:06:15;20.80;;;12.50;;
57313;SDS011;53202;50.976;18.216;2022-07-23T14:08:55;19.40;;;13.40;;
57313;SDS011;53202;50.976;18.216;2022-07-23T14:11:35;15.90;;;12.40;;
57313;SDS011;53202;50.976;18.216;2022-07-23T14:14:16;14.90;;;10.50;;
57313;SDS011;53202;50.976;18.216;2022-07-23T14:16:56;12.10;;;9.70;;
57313;SDS011;53202;50.976;18.216;2022-07-23T14:19:37;15.70;;;11.10;;
57313;SDS011;53202;50.976;18.216;2022-07-23T14:22:16;13.50;;;10.40;;
57313;SDS011;53202;50.976;18.216;2022-07-23T14:24:56;13.10;;;9.10;;
57313;SDS011;53202;50.976;18.216;2022-07-23T14:27:36;15.80;;;10.10;;
57313;SDS011;53202;50.976;18.216;2022-07-23T14:30:16;18.40;;;10.20;;
57313;SDS011;53202;50.976;18.216;2022-07-23T14:32:56;12.10;;;9.50;;
57313;SDS011;53202;50.976;18.216;2022-07-23T14:35:38;16.60;;;10.30;;
57313;SDS011;53202;50.976;18.216;2022-07-23T14:38:17;14.20;;;9.90;;
57313;SDS011;53202;50.976;18.216;2022-07-23T14:40:57;11.30;;;8.30;;
57313;SDS011;53202;50.976;18.216;2022-07-23T14:43:37;10.10;;;8.00;;
57313;SDS011;53202;50.976;18.216;2022-07-23T14:46:17;10.60;;;8.30;;
57313;SDS011;53202;50.976;18.216;2022-07-23T14:48:57;9.70;;;8.60;;
57313;SDS011;53202;50.976;18.216;2022-07-23T14:51:37;14.20;;;9.00;;
57313;SDS011;53202;50.976;18.216;2022-07-23T14:54:18;12.20;;;8.50;;
57313;SDS011;53202;50.976;18.216;2022-07-23T14:56:58;14.50;;;9.10;;
57313;SDS011;53202;50.976;18.216;2022-07-23T14:59:38;16.30;;;8.80;;
57313;SDS011;53202;50.976;18.216;2022-07-23T15:02:18;12.00;;;9.00;;
57313;SDS011;53202;50.976;18.216;2022-07-23T15:04:58;10.70;;;9.00;;
57313;SDS011;53202;50.976;18.216;2022-07-23T15:07:38;20.20;;;9.50;;
57313;SDS011;53202;50.976;18.216;2022-07-23T15:10:19;13.90;;;9.20;;
57313;SDS011;53202;50.976;18.216;2022-07-23T15:12:59;10.80;;;8.70;;
57313;SDS011;53202;50.976;18.216;2022-07-23T15:15:39;9.80;;;8.40;;
57313;SDS011;53202;50.976;18.216;2022-07-23T15:18:19;11.10;;;8.90;;
57313;SDS011;53202;50.976;18.216;2022-07-23T15:20:59;9.50;;;8.00;;
57313;SDS011;53202;50.976;18.216;2022-07-23T15:23:39;9.60;;;8.00;;
57313;SDS011;53202;50.976;18.216;2022-07-23T15:26:20;11.60;;;8.10;;
57313;SDS011;53202;50.976;18.216;2022-07-23T15:29:00;10.10;;;7.80;;
57313;SDS011;53202;50.976;18.216;2022-07-23T15:31:40;12.70;;;9.40;;
57313;SDS011;53202;50.976;18.216;2022-07-23T15:34:20;12.60;;;8.80;;
57313;SDS011;53202;50.976;18.216;2022-07-23T15:37:00;11.90;;;8.00;;
57313;SDS011;53202;50.976;18.216;2022-07-23T15:39:40;11.60;;;7.30;;
57313;SDS011;53202;50.976;18.216;2022-07-23T15:42:21;10.70;;;7.90;;
57313;SDS011;53202;50.976;18.216;2022-07-23T15:45:01;11.70;;;8.90;;
57313;SDS011;53202;50.976;18.216;2022-07-23T15:47:41;11.00;;;8.60;;
57313;SDS011;53202;50.976;18.216;2022-07-23T15:50:21;12.50;;;8.50;;
57313;SDS011;53202;50.976;18.216;2022-07-23T15:53:01;12.20;;;8.70;;
57313;SDS011;53202;50.976;18.216;2022-07-23T15:55:42;12.20;;;9.50;;
57313;SDS011;53202;50.976;18.216;2022-07-23T15:58:21;15.00;;;9.80;;
57313;SDS011;53202;50.976;18.216;2022-07-23T16:01:02;13.20;;;10.00;;
57313;SDS011;53202;50.976;18.216;2022-07-23T16:03:43;13.00;;;10.00;;
57313;SDS011;53202;50.976;18.216;2022-07-23T16:06:23;17.30;;;9.80;;
57313;SDS011;53202;50.976;18.216;2022-07-23T16:09:03;13.50;;;10.30;;
57313;SDS011;53202;50.976;18.216;2022-07-23T16:11:43;16.10;;;10.50;;